Terminal Aerodrome Forecast
Issued by NWS Shreveport, LA

Home | Current Version | Previous Version | Text Only | Print | Product List | Glossary On
Versions: 1 2 3 4 5 6 7 8 9 10 11 12 13 14 15 16 17
000
FTUS44 KSHV 260542
TAFLFK
TAF
KLFK 260542Z 2606/2706 18010KT P6SM SCT280
     FM260900 17010KT P6SM BKN015
      TEMPO 2611/2613 BKN007
     FM261500 20013G19KT P6SM OVC020
     FM261900 18015G22KT P6SM OVC035
     FM270100 17010KT P6SM OVC050=

USA.gov is the U.S. government's official web portal to all federal, state and local government web resources and services.